Time;durP1;ratioP1;P1;durP2;ratioP2;P2;SDS_P1;SDS_P2;PMS_P1;PMS_P2;Temp;Humidity;BMP_temperature;BMP_pressure;BME280_temperature;BME280_humidity;BME280_pressure;Samples;Min_cycle;Max_cycle;Signal;HPM_P1;HPM_P2
2022/01/14 00:02:16;;;;;;;437.63;326.88;;;;;;;24.21;41.27;103325.56;5106827;27;20504;-46
2022/01/14 00:04:45;;;;;;;430.75;319.27;;;;;;;24.23;41.27;103326.56;5125605;27;20080;-45
2022/01/14 00:07:13;;;;;;;434.20;320.17;;;;;;;24.19;41.34;103329.84;5125009;27;20055;-45
2022/01/14 00:09:42;;;;;;;428.33;322.33;;;;;;;24.16;41.37;103321.84;5125272;27;20091;-44
2022/01/14 00:12:19;;;;;;;439.85;327.48;;;;;;;24.16;41.70;103313.97;5107711;27;20416;-45
2022/01/14 00:14:59;;;;;;;443.88;323.92;;;;;;;24.17;41.30;103315.75;5124850;27;20035;-46
2022/01/14 00:17:29;;;;;;;446.08;333.42;;;;;;;24.23;41.21;103306.47;5124728;27;20388;-48
2022/01/14 00:19:57;;;;;;;445.08;327.88;;;;;;;24.24;41.41;103302.13;5125070;27;20031;-46
2022/01/14 00:22:28;;;;;;;444.13;323.90;;;;;;;24.18;41.24;103304.44;5124992;27;20037;-45
2022/01/14 00:33:06;;;;;;;436.13;333.38;;;;;;;24.18;41.50;103292.22;5117843;27;20514;-44
2022/01/14 00:35:41;;;;;;;441.42;325.05;;;;;;;24.12;41.60;103284.97;5124729;27;20027;-45
2022/01/14 00:38:08;;;;;;;;;;;;;;;24.21;41.25;103284.53;5125256;27;20494;-45
2022/01/14 00:40:37;;;;;;;440.75;333.58;;;;;;;24.19;41.60;103287.88;5124518;27;20168;-44
2022/01/14 00:43:05;;;;;;;450.48;333.38;;;;;;;24.13;41.41;103278.00;5124554;27;20604;-44
2022/01/14 00:45:34;;;;;;;451.48;336.60;;;;;;;24.08;41.83;103269.91;5125134;27;20047;-45
2022/01/14 00:48:03;;;;;;;454.63;341.08;;;;;;;24.07;41.70;103270.72;5124633;27;20373;-45
2022/01/14 00:50:34;;;;;;;454.75;340.17;;;;;;;24.05;41.87;103272.38;5124469;27;20377;-45
2022/01/14 00:53:03;;;;;;;451.40;335.15;;;;;;;24.06;41.38;103274.16;5105910;27;20034;-44
2022/01/14 00:55:45;;;;;;;439.38;331.65;;;;;;;24.03;41.74;103271.38;5124330;27;20023;-45
2022/01/14 01:01:02;;;;;;;446.50;336.65;;;;;;;24.03;41.51;103276.63;5113949;27;20139;-45
2022/01/14 01:03:30;;;;;;;447.27;331.92;;;;;;;24.03;41.84;103281.00;5124012;27;20039;-49
2022/01/14 01:05:59;;;;;;;447.85;333.88;;;;;;;24.03;41.56;103273.13;5124092;27;20083;-47
2022/01/14 01:08:29;;;;;;;452.77;336.58;;;;;;;24.10;41.56;103265.63;5124284;27;20117;-47
2022/01/14 01:10:57;;;;;;;443.27;334.10;;;;;;;24.07;41.37;103262.84;5124204;27;20027;-46
2022/01/14 01:13:30;;;;;;;445.33;334.38;;;;;;;24.03;41.96;103263.53;5124125;27;20436;-45
2022/01/14 01:15:58;;;;;;;446.95;334.92;;;;;;;24.05;41.75;103263.63;5124051;27;20038;-47
2022/01/14 01:18:27;;;;;;;450.17;332.65;;;;;;;24.06;41.57;103257.56;5098543;28;20023;-48
2022/01/14 01:20:56;;;;;;;445.33;333.00;;;;;;;24.06;41.64;103260.19;5124154;27;20086;-46
2022/01/14 01:23:25;;;;;;;437.92;331.38;;;;;;;24.04;41.35;103253.94;5124110;28;20069;-46
2022/01/14 01:26:00;;;;;;;439.88;330.83;;;;;;;24.01;41.57;103254.69;5123881;28;20104;-45
2022/01/14 01:28:29;;;;;;;443.85;332.17;;;;;;;24.00;41.71;103255.50;5124147;28;20030;-47
2022/01/14 01:31:34;;;;;;;439.85;329.63;;;;;;;23.98;41.73;103259.81;5123737;28;20039;-45
2022/01/14 01:33:45;;;;;;;450.63;329.42;;;;;;;23.96;41.64;103264.03;5123886;28;20084;-47
2022/01/14 01:36:13;;;;;;;440.52;333.55;;;;;;;23.96;41.93;103254.47;5123819;28;20138;-49
2022/01/14 01:38:42;;;;;;;449.08;332.55;;;;;;;23.97;41.55;103256.25;5123307;28;20031;-45
2022/01/14 01:41:12;;;;;;;443.98;326.20;;;;;;;23.92;41.76;103255.09;5124072;28;20027;-49
2022/01/14 01:43:43;;;;;;;450.45;334.58;;;;;;;23.92;41.77;103256.81;5124109;28;20384;-45
2022/01/14 01:46:13;;;;;;;453.02;337.30;;;;;;;23.93;41.75;103245.53;5123689;28;20123;-46
2022/01/14 01:48:42;;;;;;;454.30;334.30;;;;;;;23.96;41.62;103245.69;5123751;28;20031;-47
2022/01/14 01:51:11;;;;;;;435.77;331.23;;;;;;;23.95;41.68;103244.75;5124165;28;20031;-45
2022/01/14 01:53:39;;;;;;;441.05;330.55;;;;;;;23.92;41.82;103247.22;5124115;28;20026;-46
2022/01/14 01:56:08;;;;;;;446.88;330.38;;;;;;;23.92;41.39;103241.09;5124246;28;20038;-45
2022/01/14 01:58:36;;;;;;;434.63;322.95;;;;;;;23.92;41.61;103236.75;5124005;28;20016;-46
2022/01/14 02:01:06;;;;;;;451.70;336.67;;;;;;;23.93;41.59;103232.41;5123705;28;20270;-48
2022/01/14 02:03:37;;;;;;;443.65;334.33;;;;;;;23.95;41.33;103236.91;5123693;28;20031;-47
2022/01/14 02:06:06;;;;;;;452.42;337.85;;;;;;;23.89;41.59;103231.38;5123443;28;20058;-45
2022/01/14 02:08:34;;;;;;;442.17;330.70;;;;;;;23.91;41.86;103240.19;5105369;28;20039;-47
2022/01/14 02:11:04;;;;;;;451.00;331.83;;;;;;;23.88;41.58;103236.53;5123325;28;20038;-49
2022/01/14 02:13:32;;;;;;;444.65;328.83;;;;;;;23.89;41.50;103233.06;5123695;28;20042;-45
2022/01/14 02:18:36;;;;;;;443.42;327.75;;;;;;;23.84;41.56;103230.25;5123617;28;20027;-46
2022/01/14 02:26:52;;;;;;;449.58;338.33;;;;;;;23.89;41.60;103234.00;5109886;28;20096;-45
2022/01/14 02:29:22;;;;;;;450.50;335.38;;;;;;;23.85;41.73;103224.16;5124518;27;20472;-44
2022/01/14 02:31:51;;;;;;;455.27;329.10;;;;;;;23.88;41.83;103233.91;5127542;27;20084;-46
2022/01/14 02:34:20;;;;;;;438.73;328.67;;;;;;;23.88;41.77;103239.13;5127734;27;20031;-44
2022/01/14 02:36:49;;;;;;;447.50;333.98;;;;;;;23.87;41.71;103235.63;5127505;27;20442;-45
2022/01/14 02:39:19;;;;;;;439.38;329.08;;;;;;;23.88;41.44;103233.91;5127369;27;20377;-45
2022/01/14 02:41:49;;;;;;;446.95;331.27;;;;;;;23.82;41.70;103230.19;5127369;27;20506;-45
2022/01/14 02:44:23;;;;;;;450.88;336.65;;;;;;;23.79;41.97;103230.03;5098374;27;20377;-45
2022/01/14 02:46:56;;;;;;;462.27;338.20;;;;;;;23.80;41.68;103230.91;5127050;27;20399;-44
2022/01/14 02:49:27;;;;;;;439.77;327.10;;;;;;;23.83;41.79;103225.81;5126636;27;20034;-44
2022/01/14 02:51:56;;;;;;;446.63;325.55;;;;;;;23.81;41.63;103230.06;5127050;27;20035;-44
2022/01/14 02:54:32;;;;;;;451.95;335.38;;;;;;;23.80;41.47;103226.56;5127076;27;20139;-44
2022/01/14 02:57:03;;;;;;;446.30;331.25;;;;;;;23.80;41.55;103221.34;5127019;27;20023;-45
2022/01/14 02:59:33;;;;;;;442.00;333.48;;;;;;;23.81;41.89;103214.34;5126672;27;20031;-45
2022/01/14 03:02:03;;;;;;;446.73;334.23;;;;;;;23.75;41.75;103206.19;5126371;27;20507;-46
2022/01/14 03:04:39;;;;;;;439.20;332.08;;;;;;;23.77;41.71;103209.78;5108316;27;20132;-45
2022/01/14 03:07:09;;;;;;;439.90;327.73;;;;;;;23.73;41.87;103200.88;5093370;27;21118;-45
2022/01/14 03:09:39;;;;;;;436.77;331.63;;;;;;;23.75;41.87;103204.47;5126594;27;20027;-46
2022/01/14 03:12:07;;;;;;;437.58;327.77;;;;;;;23.74;41.91;103189.56;5126869;27;20023;-45
2022/01/14 03:14:36;;;;;;;448.75;332.85;;;;;;;23.76;41.82;103192.25;5126494;27;20035;-45
2022/01/14 03:17:05;;;;;;;451.77;337.55;;;;;;;23.70;41.58;103190.22;5126308;27;20027;-45
2022/01/14 03:19:33;;;;;;;455.80;336.17;;;;;;;23.71;41.89;103180.66;5125824;27;20026;-45
2022/01/14 03:22:08;;;;;;;431.33;322.83;;;;;;;23.73;41.74;103176.41;5125660;27;20035;-44
2022/01/14 03:27:05;;;;;;;453.45;337.23;;;;;;;23.71;41.77;103175.44;5125319;27;20031;-45
2022/01/14 03:29:34;;;;;;;444.40;332.52;;;;;;;23.70;41.61;103179.75;5106766;27;20039;-48
2022/01/14 03:32:03;;;;;;;430.13;324.65;;;;;;;23.70;41.41;103178.88;5125256;27;20499;-45
2022/01/14 03:34:32;;;;;;;443.67;330.02;;;;;;;23.65;41.59;103186.50;5107396;27;20421;-48
2022/01/14 03:37:00;;;;;;;437.73;323.60;;;;;;;23.61;41.77;103181.94;5126158;27;20463;-45
2022/01/14 03:39:29;;;;;;;429.65;322.65;;;;;;;23.59;41.77;103183.56;5126006;27;20031;-46
2022/01/14 03:41:58;;;;;;;442.85;327.80;;;;;;;23.59;41.75;103180.94;5125557;27;20464;-47
2022/01/14 03:44:25;;;;;;;443.92;328.35;;;;;;;23.62;41.82;103176.75;5126097;27;20037;-47
2022/01/14 03:46:54;;;;;;;438.08;328.77;;;;;;;23.63;41.64;103164.56;5125116;27;20027;-46
2022/01/14 03:49:23;;;;;;;442.48;330.25;;;;;;;23.62;41.48;103176.75;5125601;27;20023;-48
2022/01/14 03:51:51;;;;;;;449.58;333.50;;;;;;;23.59;41.68;103163.50;5107751;27;20027;-45
2022/01/14 03:54:21;;;;;;;445.17;332.02;;;;;;;23.56;41.84;103170.31;5125795;27;20553;-48
2022/01/14 03:56:50;;;;;;;452.15;332.60;;;;;;;23.54;41.95;103159.78;5092349;27;20089;-45
2022/01/14 03:59:18;;;;;;;444.38;329.05;;;;;;;23.58;41.77;103161.69;5107348;27;20033;-45
2022/01/14 04:01:47;;;;;;;438.42;325.95;;;;;;;23.56;41.64;103162.44;5125792;27;20114;-46
2022/01/14 04:04:16;;;;;;;434.40;327.08;;;;;;;23.56;41.36;103168.59;5125402;27;20042;-46
2022/01/14 04:06:45;;;;;;;442.60;329.52;;;;;;;23.52;41.95;103171.88;5103310;28;20047;-46
2022/01/14 04:09:13;;;;;;;435.27;322.13;;;;;;;23.50;41.59;103161.31;5105047;28;20392;-46
2022/01/14 04:11:44;;;;;;;439.52;332.42;;;;;;;23.54;41.37;103153.63;5104318;28;20035;-45
2022/01/14 04:17:00;;;;;;;440.95;327.52;;;;;;;23.53;41.54;103150.09;5103202;28;20089;-48
2022/01/14 04:19:29;;;;;;;448.52;332.55;;;;;;;23.49;41.60;103149.06;5103269;28;20494;-45
2022/01/14 04:21:58;;;;;;;440.17;330.70;;;;;;;23.48;41.63;103143.72;5103423;28;20020;-45
2022/01/14 04:24:26;;;;;;;432.15;322.25;;;;;;;23.54;41.27;103148.38;5104341;28;20662;-47
2022/01/14 04:26:55;;;;;;;448.63;331.30;;;;;;;23.49;41.80;103149.06;5104221;28;20027;-46
2022/01/14 04:29:23;;;;;;;445.67;334.30;;;;;;;23.51;41.71;103144.78;5104506;28;20366;-45
2022/01/14 04:31:52;;;;;;;435.00;330.85;;;;;;;23.47;41.78;103152.41;5104384;28;20031;-46
2022/01/14 04:34:21;;;;;;;442.63;327.10;;;;;;;23.45;41.92;103148.81;5103682;28;20509;-47
2022/01/14 04:36:49;;;;;;;451.20;334.00;;;;;;;23.48;41.70;103131.56;5104910;28;20024;-45
2022/01/14 04:39:17;;;;;;;442.27;328.75;;;;;;;23.48;41.54;103134.16;5104644;28;20039;-46
2022/01/14 04:41:46;;;;;;;451.70;336.13;;;;;;;23.49;41.51;103135.97;5104352;28;20047;-46
2022/01/14 04:44:14;;;;;;;444.20;331.75;;;;;;;23.46;41.51;103132.28;5103741;28;20020;-44
2022/01/14 04:49:12;;;;;;;442.33;332.48;;;;;;;23.40;41.66;103125.03;5104330;28;20030;-45
2022/01/14 04:51:40;;;;;;;458.05;336.48;;;;;;;23.38;41.46;103128.41;5104021;28;20027;-45
2022/01/14 04:54:10;;;;;;;446.42;332.60;;;;;;;23.38;41.79;103121.41;5103272;28;20032;-48
2022/01/14 04:56:39;;;;;;;457.33;339.52;;;;;;;23.35;41.61;103129.13;5103735;28;20024;-45
2022/01/14 04:59:08;;;;;;;449.77;332.55;;;;;;;23.28;41.75;103125.28;5103912;28;20028;-45
2022/01/14 05:01:37;;;;;;;446.50;335.40;;;;;;;23.36;41.64;103138.78;5104274;28;20042;-48
2022/01/14 05:04:05;;;;;;;461.60;341.88;;;;;;;23.38;41.49;103134.50;5104040;28;20127;-44
2022/01/14 05:06:34;;;;;;;451.27;338.08;;;;;;;23.36;41.64;103133.53;5111249;27;20146;-49
2022/01/14 05:09:15;;;;;;;453.15;336.63;;;;;;;23.38;41.61;103121.41;5124443;27;20023;-45
2022/01/14 05:11:51;;;;;;;447.83;336.50;;;;;;;23.37;41.81;103114.38;5123799;27;20027;-48
2022/01/14 05:14:20;;;;;;;457.70;338.15;;;;;;;23.38;41.75;103116.19;5124344;27;20595;-45
2022/01/14 05:16:49;;;;;;;447.58;335.55;;;;;;;23.36;41.43;103109.97;5124592;27;20085;-45
2022/01/14 05:19:17;;;;;;;462.60;345.55;;;;;;;23.32;41.78;103106.31;5124220;27;20031;-46
2022/01/14 05:21:46;;;;;;;449.83;335.85;;;;;;;23.37;41.61;103103.91;5123827;27;20285;-44
2022/01/14 05:24:14;;;;;;;441.58;333.58;;;;;;;23.37;41.64;103103.91;5124320;27;20052;-45
2022/01/14 05:26:43;;;;;;;451.27;338.95;;;;;;;23.00;41.65;103040.13;5124115;28;20141;-45
2022/01/14 05:29:11;;;;;;;443.98;330.13;;;;;;;23.36;41.55;103097.78;5123670;28;20117;-45
2022/01/14 05:31:46;;;;;;;449.95;339.95;;;;;;;23.32;41.88;103094.94;5123996;28;20019;-47
2022/01/14 05:34:15;;;;;;;437.13;326.52;;;;;;;23.32;41.33;103095.84;5123055;28;20086;-45
2022/01/14 05:36:43;;;;;;;445.00;332.42;;;;;;;23.31;41.75;103088.78;5105898;28;20031;-45
2022/01/14 05:39:12;;;;;;;437.60;328.02;;;;;;;23.27;41.68;103094.69;5094339;28;21066;-44
2022/01/14 05:41:41;;;;;;;447.15;331.92;;;;;;;23.25;41.39;103082.34;5105542;28;20027;-44
2022/01/14 05:44:09;;;;;;;443.55;328.80;;;;;;;23.28;41.53;103080.78;5124071;28;20084;-44
2022/01/14 05:46:38;;;;;;;430.58;318.23;;;;;;;23.31;41.42;103085.28;5123919;28;20028;-44
2022/01/14 05:49:07;;;;;;;444.08;330.20;;;;;;;23.34;41.72;103085.41;5105804;28;20488;-43
2022/01/14 05:51:35;;;;;;;440.15;330.83;;;;;;;23.30;41.65;103088.72;5123836;28;20122;-44
2022/01/14 05:54:04;;;;;;;447.77;339.17;;;;;;;23.25;41.85;103090.22;5123805;28;20104;-45
2022/01/14 05:56:33;;;;;;;439.48;332.95;;;;;;;23.25;41.96;103091.09;5123309;28;20035;-44
2022/01/14 05:59:01;;;;;;;443.63;334.58;;;;;;;23.30;41.57;103091.34;5123465;28;20392;-45
2022/01/14 06:01:30;;;;;;;458.90;344.50;;;;;;;23.28;41.73;103090.38;5123816;28;20023;-45
2022/01/14 06:04:00;;;;;;;452.35;336.65;;;;;;;23.25;41.80;103088.47;5124577;27;20373;-45
2022/01/14 06:06:30;;;;;;;440.52;332.02;;;;;;;23.27;41.96;103093.81;5127759;27;20078;-45
2022/01/14 06:08:59;;;;;;;441.08;327.85;;;;;;;23.23;41.60;103095.38;5127859;27;20070;-44
2022/01/14 06:11:28;;;;;;;446.45;333.98;;;;;;;23.27;41.85;103109.53;5127857;27;20043;-45
2022/01/14 06:13:57;;;;;;;446.77;341.55;;;;;;;23.15;41.70;103105.44;5127383;27;20472;-45
2022/01/14 06:16:25;;;;;;;451.92;340.45;;;;;;;23.19;41.72;103111.72;5127771;27;20061;-46
2022/01/14 06:18:54;;;;;;;454.58;339.65;;;;;;;23.25;41.96;103103.31;5127627;27;20109;-46
2022/01/14 06:21:23;;;;;;;454.50;340.60;;;;;;;23.25;41.53;103106.81;5127104;27;20035;-46
2022/01/14 06:23:51;;;;;;;457.80;341.73;;;;;;;23.29;41.67;103110.50;5127512;27;20470;-45
2022/01/14 06:26:20;;;;;;;459.75;341.45;;;;;;;23.27;41.55;103130.47;5126999;27;20027;-45
2022/01/14 06:28:48;;;;;;;459.90;337.55;;;;;;;23.27;41.70;103125.25;5127373;27;20088;-45
2022/01/14 06:31:17;;;;;;;455.65;344.20;;;;;;;23.27;41.38;103128.72;5127025;27;20029;-45
2022/01/14 06:33:45;;;;;;;456.88;343.52;;;;;;;23.23;41.46;103121.56;5127256;27;20417;-45
2022/01/14 06:36:14;;;;;;;454.30;341.85;;;;;;;23.30;41.74;103133.25;5127316;27;20114;-47
2022/01/14 06:38:42;;;;;;;454.58;340.15;;;;;;;23.31;41.45;103135.94;5126836;27;20109;-46
2022/01/14 06:41:11;;;;;;;444.10;338.60;;;;;;;23.27;41.84;103141.84;5126965;27;20035;-45
2022/01/14 06:43:40;;;;;;;445.65;332.50;;;;;;;23.25;42.03;103147.81;5127366;27;20434;-46
2022/01/14 06:46:08;;;;;;;448.80;337.60;;;;;;;23.19;41.65;103141.41;5126976;27;20027;-48
2022/01/14 06:48:37;;;;;;;449.58;333.35;;;;;;;23.19;41.94;103141.41;5127080;27;20030;-48
2022/01/14 06:51:05;;;;;;;449.23;338.55;;;;;;;23.24;41.51;103148.66;5127248;27;20039;-45
2022/01/14 06:53:33;;;;;;;441.85;326.17;;;;;;;23.24;41.53;103146.03;5126930;27;20035;-45
2022/01/14 06:56:02;;;;;;;436.75;329.00;;;;;;;23.25;41.26;103143.47;5127040;27;20042;-45
2022/01/14 06:58:30;;;;;;;446.00;328.23;;;;;;;23.26;41.76;103144.38;5126185;27;20027;-45
2022/01/14 07:00:59;;;;;;;440.33;328.13;;;;;;;23.30;41.10;103151.59;5126841;27;20038;-48
2022/01/14 07:03:27;;;;;;;442.65;325.65;;;;;;;23.28;41.43;103151.47;5126805;27;20376;-45
2022/01/14 07:05:55;;;;;;;447.60;327.52;;;;;;;23.24;41.40;103151.25;5126342;27;20035;-43
2022/01/14 07:08:24;;;;;;;436.75;327.35;;;;;;;23.30;41.47;103148.97;5126902;27;20027;-44
2022/01/14 07:10:52;;;;;;;454.02;335.98;;;;;;;23.32;41.46;103152.56;5101346;27;20130;-48
2022/01/14 07:13:20;;;;;;;451.27;330.52;;;;;;;23.33;41.66;103144.78;5108540;27;20030;-44
2022/01/14 07:15:48;;;;;;;442.00;331.02;;;;;;;23.31;41.27;103145.53;5107037;27;20464;-45
2022/01/14 07:18:17;;;;;;;456.67;330.25;;;;;;;23.35;41.67;103143.13;5125998;27;20034;-44
2022/01/14 07:20:45;;;;;;;448.13;332.02;;;;;;;23.31;41.82;103149.03;5126416;27;20384;-47
2022/01/14 07:23:12;;;;;;;446.27;329.08;;;;;;;23.29;41.60;103148.03;5126535;27;20180;-44
2022/01/14 07:25:41;;;;;;;444.83;329.25;;;;;;;23.33;41.28;103149.13;5126489;27;20027;-46
2022/01/14 07:28:09;;;;;;;445.45;328.58;;;;;;;23.32;41.41;103139.47;5107765;27;20039;-46
2022/01/14 07:30:38;;;;;;;442.60;321.83;;;;;;;23.29;41.42;103134.94;5126043;27;20100;-46
2022/01/14 07:33:06;;;;;;;430.27;325.27;;;;;;;23.29;41.68;103131.44;5126515;27;20035;-48
2022/01/14 07:35:34;;;;;;;435.33;323.02;;;;;;;23.28;41.25;103135.78;5126244;27;20033;-45
2022/01/14 07:38:03;;;;;;;444.70;324.75;;;;;;;23.28;41.26;103134.88;5126070;27;20042;-45
2022/01/14 07:40:30;;;;;;;452.27;332.35;;;;;;;23.32;41.73;103126.38;5125781;27;20031;-45
2022/01/14 07:42:58;;;;;;;455.30;324.08;;;;;;;23.31;41.35;103129.81;5125814;27;20114;-45
2022/01/14 07:45:27;;;;;;;442.58;325.67;;;;;;;23.35;41.39;103132.66;5107712;27;20037;-44
2022/01/14 07:47:55;;;;;;;443.48;325.58;;;;;;;23.31;41.34;103138.56;5126362;27;20200;-45
2022/01/14 07:50:24;;;;;;;442.52;322.55;;;;;;;23.23;41.33;103137.28;5125537;27;20399;-45
2022/01/14 07:52:53;;;;;;;441.48;326.60;;;;;;;23.27;41.74;103133.97;5125201;27;20027;-45
2022/01/14 07:55:22;;;;;;;440.90;323.95;;;;;;;23.26;41.65;103126.06;5107526;27;20049;-44
2022/01/14 07:57:50;;;;;;;442.08;329.42;;;;;;;23.24;41.43;103130.31;5125469;27;20019;-44
2022/01/14 08:00:19;;;;;;;447.85;330.27;;;;;;;23.25;41.88;103119.00;5125190;27;20037;-45
2022/01/14 08:02:47;;;;;;;443.75;328.55;;;;;;;23.27;41.77;103106.91;5125442;27;20031;-45
2022/01/14 08:05:17;;;;;;;446.95;326.95;;;;;;;23.27;41.78;103118.25;5125879;27;20428;-45
2022/01/14 08:07:46;;;;;;;446.90;324.98;;;;;;;23.28;41.43;103117.44;5107302;27;20055;-44
2022/01/14 08:10:15;;;;;;;443.80;326.05;;;;;;;23.29;41.70;103128.84;5125258;27;20038;-45
2022/01/14 08:12:44;;;;;;;441.17;327.77;;;;;;;23.31;41.69;103130.69;5124693;27;20094;-44
2022/01/14 08:15:13;;;;;;;451.27;327.67;;;;;;;23.32;41.39;103136.84;5125359;27;20034;-45
2022/01/14 08:17:42;;;;;;;445.90;329.70;;;;;;;23.36;41.34;103130.91;5125082;27;20051;-44
2022/01/14 08:20:11;;;;;;;436.77;325.13;;;;;;;23.34;41.31;103122.09;5106608;27;20404;-45
2022/01/14 08:22:39;;;;;;;442.50;326.95;;;;;;;23.29;41.65;103121.84;5096610;27;20023;-46
2022/01/14 08:25:09;;;;;;;435.40;316.40;;;;;;;23.29;41.65;103127.09;5106221;27;20504;-44
2022/01/14 08:27:37;;;;;;;454.38;328.77;;;;;;;23.28;41.54;103124.41;5124546;27;20027;-45
2022/01/14 08:30:07;;;;;;;433.90;323.90;;;;;;;23.27;41.75;103115.63;5106363;27;20087;-46
2022/01/14 08:32:36;;;;;;;450.10;329.08;;;;;;;23.30;41.40;103112.31;5124964;27;20486;-45
2022/01/14 08:35:05;;;;;;;444.05;325.15;;;;;;;23.32;41.79;103110.66;5125105;27;20099;-44
2022/01/14 08:37:34;;;;;;;433.98;312.30;;;;;;;23.28;41.20;103124.41;5124337;27;20023;-45
2022/01/14 08:40:03;;;;;;;440.55;321.42;;;;;;;23.30;41.70;103122.78;5124678;27;20023;-45
2022/01/14 08:42:31;;;;;;;443.45;330.63;;;;;;;23.28;41.81;103124.41;5124514;27;20484;-46
2022/01/14 08:45:00;;;;;;;458.73;332.08;;;;;;;23.28;41.46;103122.69;5124773;27;20027;-45
2022/01/14 08:47:30;;;;;;;441.75;322.67;;;;;;;23.27;41.72;103133.09;5124805;27;20084;-45
2022/01/14 08:49:59;;;;;;;433.73;318.98;;;;;;;23.26;41.65;103131.28;5124694;27;20118;-46
2022/01/14 08:52:29;;;;;;;436.83;327.90;;;;;;;23.31;41.58;103132.44;5124833;27;20038;-45
2022/01/14 08:54:57;;;;;;;447.38;327.88;;;;;;;23.30;41.47;103128.91;5125053;27;20027;-45
2022/01/14 08:57:26;;;;;;;446.38;330.38;;;;;;;23.30;41.27;103131.50;5124560;27;20054;-45
2022/01/14 08:59:55;;;;;;;445.13;327.98;;;;;;;23.25;41.74;103137.34;5124753;27;20132;-45
2022/01/14 09:02:24;;;;;;;444.58;321.88;;;;;;;23.20;41.74;103138.00;5124250;27;20035;-47
2022/01/14 09:04:53;;;;;;;438.77;318.17;;;;;;;23.21;41.66;103128.44;5124604;27;20949;-45
2022/01/14 09:07:21;;;;;;;429.95;315.30;;;;;;;23.29;41.56;103137.56;5124076;27;20047;-45
2022/01/14 09:09:51;;;;;;;429.15;313.70;;;;;;;23.27;41.42;103139.22;5124120;27;20019;-47
2022/01/14 09:12:20;;;;;;;420.80;308.88;;;;;;;23.28;41.15;103155.84;5124043;27;20031;-46
2022/01/14 09:14:49;;;;;;;427.00;311.88;;;;;;;23.26;41.12;103154.84;5124459;27;20491;-45
2022/01/14 09:17:17;;;;;;;434.48;313.60;;;;;;;23.29;41.00;103163.75;5106008;28;20040;-45
2022/01/14 09:19:46;;;;;;;439.27;319.65;;;;;;;23.29;41.52;103158.53;5124519;27;20027;-45
2022/01/14 09:22:17;;;;;;;438.73;320.08;;;;;;;23.30;41.51;103164.69;5124247;27;20464;-45
2022/01/14 09:24:47;;;;;;;443.63;322.83;;;;;;;23.31;41.29;103166.47;5124579;27;20031;-46
2022/01/14 09:27:16;;;;;;;444.55;322.65;;;;;;;23.27;41.41;103169.75;5124100;27;20019;-45
2022/01/14 09:29:45;;;;;;;436.77;321.27;;;;;;;23.26;41.23;103166.22;5124278;28;20200;-45
2022/01/14 09:32:14;;;;;;;442.73;320.98;;;;;;;23.31;41.61;103169.97;5105846;28;20079;-46
2022/01/14 09:34:43;;;;;;;450.05;330.65;;;;;;;23.29;41.42;103178.59;5124159;28;20462;-45
2022/01/14 09:37:11;;;;;;;451.05;333.60;;;;;;;23.24;41.17;103161.72;5124400;28;20030;-46
2022/01/14 09:39:43;;;;;;;435.83;322.85;;;;;;;23.32;41.17;103179.63;5107402;27;20798;-46
2022/01/14 09:42:14;;;;;;;442.83;322.60;;;;;;;23.31;41.40;103172.59;5128284;27;20031;-47
2022/01/14 09:44:44;;;;;;;426.05;314.80;;;;;;;23.34;41.28;103177.09;5128074;27;20027;-45
2022/01/14 09:47:23;;;;;;;437.35;314.75;;;;;;;23.31;41.03;103177.84;5128149;27;20055;-46
2022/01/14 09:49:52;;;;;;;440.20;321.52;;;;;;;23.28;41.20;103176.78;5096348;27;20030;-45
2022/01/14 09:52:20;;;;;;;425.05;306.83;;;;;;;23.32;41.08;103179.63;5127795;27;20031;-46
2022/01/14 09:54:51;;;;;;;416.92;303.10;;;;;;;23.26;41.22;103181.94;5100002;27;20019;-46
2022/01/14 09:57:20;;;;;;;424.77;307.55;;;;;;;23.33;41.20;103186.69;5127966;27;20048;-47
2022/01/14 09:59:49;;;;;;;423.02;302.73;;;;;;;23.33;40.96;103194.53;5128172;27;20039;-46
2022/01/14 10:02:39;;;;;;;421.65;299.30;;;;;;;23.35;40.98;103200.75;5127836;27;20118;-45
2022/01/14 10:05:08;;;;;;;409.35;293.83;;;;;;;23.36;41.13;103199.00;5127918;27;20019;-47
2022/01/14 10:07:37;;;;;;;407.58;292.73;;;;;;;23.35;40.74;103197.22;5109756;27;20058;-46
2022/01/14 10:10:25;;;;;;;403.85;289.52;;;;;;;23.31;40.89;103198.78;5127846;27;20031;-46
2022/01/14 10:12:54;;;;;;;401.52;283.08;;;;;;;23.37;40.90;103200.81;5127743;27;20106;-46
2022/01/14 10:15:22;;;;;;;391.85;285.92;;;;;;;23.33;40.91;103197.16;5127391;27;20027;-46
2022/01/14 10:17:51;;;;;;;399.35;289.52;;;;;;;23.35;40.73;103198.13;5127739;27;20028;-46
2022/01/14 10:20:20;;;;;;;388.80;280.52;;;;;;;23.32;40.81;103195.34;5127183;27;20019;-45
2022/01/14 10:22:49;;;;;;;408.00;288.15;;;;;;;23.32;40.61;103191.84;5128099;27;20031;-45
2022/01/14 10:25:20;;;;;;;398.98;282.95;;;;;;;23.31;40.56;103193.56;5127760;27;20038;-47
2022/01/14 10:27:51;;;;;;;394.00;281.88;;;;;;;23.31;40.67;103197.91;5109381;27;20392;-45
2022/01/14 10:30:20;;;;;;;397.98;284.73;;;;;;;23.28;41.04;103190.78;5127677;27;20854;-45
2022/01/14 10:32:54;;;;;;;398.92;280.48;;;;;;;23.27;41.00;103195.94;5127795;27;20027;-45
2022/01/14 10:35:24;;;;;;;376.92;270.20;;;;;;;23.27;40.94;103188.09;5127483;27;20080;-45
2022/01/14 10:37:52;;;;;;;389.40;276.20;;;;;;;23.29;40.60;103189.94;5127234;27;20554;-45
2022/01/14 10:40:23;;;;;;;388.02;277.38;;;;;;;23.27;40.84;103183.72;5108809;27;20140;-45
2022/01/14 10:42:57;;;;;;;381.08;271.98;;;;;;;23.31;40.60;103183.06;5126824;27;20031;-45
2022/01/14 10:45:28;;;;;;;377.83;271.17;;;;;;;23.32;40.44;103178.75;5109372;27;20539;-45
2022/01/14 10:47:57;;;;;;;393.42;273.83;;;;;;;23.31;40.73;103177.84;5127123;27;20130;-45
2022/01/14 10:50:48;;;;;;;385.95;270.23;;;;;;;23.31;40.84;103169.09;5125884;27;20039;-45
2022/01/14 10:53:19;;;;;;;375.30;271.55;;;;;;;23.32;40.60;103173.50;5126393;27;20035;-45
2022/01/14 10:55:50;;;;;;;374.75;266.58;;;;;;;23.28;40.62;103177.69;5108232;27;20095;-45
2022/01/14 10:58:29;;;;;;;372.35;270.23;;;;;;;23.39;40.53;103180.84;5126222;27;20123;-45
2022/01/14 11:01:00;;;;;;;383.38;269.13;;;;;;;23.31;40.48;103187.44;5126072;27;20058;-46
2022/01/14 11:03:48;;;;;;;372.55;262.73;;;;;;;23.30;40.59;103181.28;5126885;27;20066;-45
2022/01/14 11:06:28;;;;;;;374.95;264.45;;;;;;;23.27;40.58;103178.50;5117796;27;20392;-46
2022/01/14 11:09:00;;;;;;;362.05;261.02;;;;;;;23.28;40.38;103174.19;5126444;27;20384;-46
2022/01/14 11:11:31;;;;;;;385.10;261.13;;;;;;;23.26;40.75;103168.84;5126565;27;20551;-46
2022/01/14 11:14:00;;;;;;;363.90;251.77;;;;;;;23.28;40.18;103164.56;5126193;27;20037;-46
2022/01/14 11:16:28;;;;;;;356.33;255.35;;;;;;;23.29;40.34;103166.38;5125881;27;20160;-45
2022/01/14 11:18:59;;;;;;;342.42;236.65;;;;;;;23.25;40.59;103169.66;5107897;27;20039;-46
2022/01/14 11:24:20;;;;;;;304.70;210.40;;;;;;;23.23;39.99;103150.38;5118550;27;20480;-45
2022/01/14 11:26:50;;;;;;;300.90;212.35;;;;;;;23.22;40.42;103143.34;5126357;27;20026;-45
2022/01/14 11:29:21;;;;;;;290.20;205.38;;;;;;;23.28;40.04;103145.38;5108404;27;20118;-46
2022/01/14 11:31:58;;;;;;;286.40;199.75;;;;;;;23.49;39.89;103138.59;5100339;27;20138;-47
2022/01/14 11:34:37;;;;;;;281.42;196.77;;;;;;;23.58;39.58;103139.84;5125806;27;20400;-45
2022/01/14 11:37:10;;;;;;;276.77;190.15;;;;;;;23.58;39.91;103143.34;5125916;27;20055;-45